createdAt,value
2019-01-31T00:02:10.414Z,0.10
2019-01-31T00:07:01.219Z,0.00
2019-01-31T00:12:00.693Z,0.00
2019-01-31T00:16:50.982Z,-0.10
2019-01-31T00:21:41.804Z,-0.10
2019-01-31T00:26:33.557Z,-0.20
2019-01-31T00:31:25.209Z,-0.30
2019-01-31T00:36:33.619Z,-0.30
2019-01-31T00:41:37.039Z,-0.40
2019-01-31T00:46:25.441Z,-0.50
2019-01-31T00:51:16.862Z,-0.60
2019-01-31T00:56:08.230Z,-0.60
2019-01-31T01:01:03.284Z,-0.70
2019-01-31T01:05:54.687Z,-0.70
2019-01-31T01:10:46.071Z,-0.70
2019-01-31T01:15:37.367Z,-0.70
2019-01-31T01:20:29.010Z,-0.80
2019-01-31T01:25:22.628Z,-0.80
2019-01-31T01:30:13.637Z,-0.90
2019-01-31T01:35:05.241Z,-0.90
2019-01-31T01:39:57.186Z,-0.90
2019-01-31T01:44:48.990Z,-1.00
2019-01-31T01:49:40.433Z,-1.00
2019-01-31T01:54:32.086Z,-1.00
2019-01-31T01:59:23.512Z,-1.10
2019-01-31T02:04:17.431Z,-1.10
2019-01-31T02:09:10.879Z,-1.10
2019-01-31T02:14:01.756Z,-1.20
2019-01-31T02:18:55.483Z,-1.30
2019-01-31T02:23:46.589Z,-1.30
2019-01-31T02:28:38.190Z,-1.40
2019-01-31T02:33:29.654Z,-1.30
2019-01-31T02:38:21.420Z,-1.30
2019-01-31T02:43:14.994Z,-1.30
2019-01-31T02:48:06.042Z,-1.40
2019-01-31T02:52:57.888Z,-1.50
2019-01-31T02:57:49.337Z,-1.50
2019-01-31T03:02:41.060Z,-1.60
2019-01-31T03:07:32.635Z,-1.60
2019-01-31T03:12:24.366Z,-1.60
2019-01-31T03:17:15.893Z,-1.60
2019-01-31T03:22:09.503Z,-1.70
2019-01-31T03:27:00.520Z,-1.70
2019-01-31T03:31:52.327Z,-1.70
2019-01-31T03:41:55.467Z,-1.70
2019-01-31T03:46:47.347Z,-1.80
2019-01-31T03:51:38.986Z,-1.60
2019-01-31T03:56:31.372Z,-1.60
2019-01-31T04:01:22.569Z,-1.60
2019-01-31T04:06:14.156Z,-1.60
2019-01-31T04:11:05.911Z,-1.70
2019-01-31T04:15:57.546Z,-1.80
2019-01-31T04:20:52.099Z,-1.80
2019-01-31T04:25:43.274Z,-1.70
2019-01-31T04:30:34.664Z,-1.60
2019-01-31T04:35:43.791Z,-1.60
2019-01-31T04:40:32.316Z,-1.50
2019-01-31T04:45:23.002Z,-1.50
2019-01-31T04:50:15.631Z,-1.50
2019-01-31T04:55:09.259Z,-1.50
2019-01-31T05:00:00.694Z,-1.40
2019-01-31T05:04:53.904Z,-1.40
2019-01-31T05:09:46.412Z,-1.40
2019-01-31T05:14:39.598Z,-1.40
2019-01-31T05:19:32.691Z,-1.40
2019-01-31T05:24:36.251Z,-1.40
2019-01-31T05:29:25.166Z,-1.40
2019-01-31T05:34:18.399Z,-1.40
2019-01-31T05:39:10.328Z,-1.40
2019-01-31T05:44:16.692Z,-1.50
2019-01-31T05:49:06.132Z,-1.50
2019-01-31T05:54:03.496Z,-1.40
2019-01-31T05:59:07.008Z,-1.50
2019-01-31T06:03:55.285Z,-1.50
2019-01-31T06:08:45.600Z,-1.60
2019-01-31T06:13:53.401Z,-1.60
2019-01-31T06:18:49.908Z,-1.60
2019-01-31T06:23:53.588Z,-1.60
2019-01-31T06:28:43.118Z,-1.60
2019-01-31T06:33:49.473Z,-1.50
2019-01-31T06:38:37.543Z,-1.60
2019-01-31T06:43:28.890Z,-1.60
2019-01-31T06:48:19.927Z,-1.70
2019-01-31T06:53:10.473Z,-1.70
2019-01-31T06:57:59.633Z,-1.80
2019-01-31T07:02:58.274Z,-1.80
2019-01-31T07:07:47.711Z,-1.80
2019-01-31T07:12:38.024Z,-1.90
2019-01-31T07:17:35.335Z,-1.90
2019-01-31T07:22:23.277Z,-1.90
2019-01-31T07:27:13.060Z,-2.00
2019-01-31T07:32:11.911Z,-2.00
2019-01-31T07:37:01.021Z,-2.00
2019-01-31T07:41:58.125Z,-2.00
2019-01-31T07:46:47.936Z,-2.00
2019-01-31T07:51:37.306Z,-1.90
2019-01-31T07:56:29.418Z,-1.90
2019-01-31T08:01:20.675Z,-1.90
2019-01-31T08:06:12.881Z,-1.80
2019-01-31T08:11:05.482Z,-1.70
2019-01-31T08:15:57.313Z,-1.70
2019-01-31T08:20:49.876Z,-1.60
2019-01-31T08:25:41.914Z,-1.50
2019-01-31T08:30:38.269Z,-1.40
2019-01-31T08:35:30.457Z,-1.40
2019-01-31T08:40:19.844Z,-1.40
2019-01-31T08:45:27.980Z,-1.30
2019-01-31T08:50:30.578Z,-1.30
2019-01-31T08:55:35.436Z,-1.10
2019-01-31T09:00:21.883Z,-1.00
2019-01-31T09:05:26.676Z,-0.90
2019-01-31T09:10:29.352Z,-0.80
2019-01-31T09:15:32.505Z,-0.60
2019-01-31T09:20:35.825Z,-0.50
2019-01-31T09:25:37.109Z,-0.30
2019-01-31T09:30:40.534Z,-0.20
2019-01-31T09:35:42.917Z,0.00
2019-01-31T09:40:45.802Z,0.10
2019-01-31T09:45:48.887Z,0.20
2019-01-31T09:50:52.552Z,0.40
2019-01-31T09:55:40.803Z,0.40
2019-01-31T10:00:30.239Z,0.50
2019-01-31T10:05:36.036Z,0.50
2019-01-31T10:10:33.194Z,0.60
2019-01-31T10:15:30.989Z,0.70
2019-01-31T10:20:34.983Z,0.80
2019-01-31T10:25:32.231Z,0.90
2019-01-31T10:30:39.666Z,1.10
2019-01-31T10:35:28.329Z,1.10
2019-01-31T10:40:17.978Z,1.30
2019-01-31T10:45:10.272Z,1.60
2019-01-31T10:50:17.714Z,1.80
2019-01-31T10:55:20.028Z,1.90
2019-01-31T11:00:16.036Z,2.00
2019-01-31T11:05:23.698Z,2.30
2019-01-31T11:17:38.448Z,2.50
2019-01-31T11:28:26.715Z,2.30
2019-01-31T11:33:23.470Z,1.90
2019-01-31T11:38:27.316Z,1.70
2019-01-31T11:43:24.048Z,1.40
2019-01-31T11:48:27.365Z,1.40
2019-01-31T11:53:23.914Z,1.40
2019-01-31T11:58:27.803Z,1.50
2019-01-31T12:03:16.119Z,1.60
2019-01-31T12:08:21.083Z,1.80
2019-01-31T12:13:24.373Z,1.90
2019-01-31T12:18:25.102Z,1.90
2019-01-31T12:23:28.052Z,2.10
2019-01-31T12:28:30.935Z,2.10
2019-01-31T12:33:34.410Z,2.10
2019-01-31T12:38:38.102Z,2.10
2019-01-31T12:43:40.944Z,2.10
2019-01-31T12:48:44.055Z,2.10
2019-01-31T12:53:46.325Z,2.00
2019-01-31T12:58:42.198Z,2.00
2019-01-31T13:03:30.239Z,2.00
2019-01-31T13:08:29.021Z,2.00
2019-01-31T13:13:26.249Z,2.10
2019-01-31T13:18:29.429Z,2.10
2019-01-31T13:23:33.085Z,2.00
2019-01-31T13:28:19.337Z,1.90
2019-01-31T13:33:18.399Z,1.90
2019-01-31T13:38:07.355Z,1.60
2019-01-31T13:43:13.229Z,1.60
2019-01-31T13:48:16.630Z,1.60
2019-01-31T13:53:19.636Z,1.60
2019-01-31T13:58:24.436Z,1.60
2019-01-31T14:03:27.165Z,1.60
2019-01-31T14:08:28.152Z,1.60
2019-01-31T14:13:30.971Z,1.50
2019-01-31T14:18:34.522Z,1.40
2019-01-31T14:23:39.614Z,1.40
2019-01-31T14:28:42.705Z,1.40
2019-01-31T14:33:45.748Z,1.50
2019-01-31T14:38:48.553Z,1.50
2019-01-31T14:43:49.099Z,1.50
2019-01-31T14:48:52.355Z,1.50
2019-01-31T14:53:56.116Z,1.50
2019-01-31T14:58:57.589Z,1.60
2019-01-31T15:03:45.673Z,1.50
2019-01-31T15:08:51.016Z,1.40
2019-01-31T15:13:55.000Z,1.40
2019-01-31T15:18:58.840Z,1.30
2019-01-31T15:24:01.376Z,1.30
2019-01-31T15:29:04.869Z,1.20
2019-01-31T15:34:06.322Z,1.10
2019-01-31T15:38:52.985Z,1.10
2019-01-31T15:43:58.475Z,1.10
2019-01-31T15:48:59.644Z,1.10
2019-01-31T15:54:02.566Z,1.10
2019-01-31T15:58:50.767Z,1.10
2019-01-31T16:03:49.746Z,1.10
2019-01-31T16:08:53.458Z,1.10
2019-01-31T16:13:56.776Z,1.10
2019-01-31T16:19:01.857Z,1.10
2019-01-31T16:24:05.148Z,1.10
2019-01-31T16:29:08.155Z,1.00
2019-01-31T16:34:11.446Z,0.90
2019-01-31T16:39:16.608Z,0.80
2019-01-31T16:44:18.800Z,0.80
2019-01-31T16:49:22.479Z,0.70
2019-01-31T16:54:23.998Z,0.60
2019-01-31T16:59:11.126Z,0.60
2019-01-31T17:04:08.626Z,0.50
2019-01-31T17:09:12.415Z,0.40
2019-01-31T17:14:14.743Z,0.30
2019-01-31T17:19:11.746Z,0.20
2019-01-31T17:24:15.538Z,0.20
2019-01-31T17:29:04.647Z,0.10
2019-01-31T17:34:10.240Z,0.10
2019-01-31T17:39:12.900Z,0.10
2019-01-31T17:44:14.542Z,0.10
2019-01-31T17:49:17.773Z,0.10
2019-01-31T17:54:05.088Z,0.10
2019-01-31T17:59:08.856Z,0.00
2019-01-31T18:04:11.394Z,0.00
2019-01-31T18:09:14.582Z,-0.10
2019-01-31T18:14:11.908Z,-0.10
2019-01-31T18:19:00.988Z,-0.20
2019-01-31T18:24:04.985Z,-0.30
2019-01-31T18:29:06.695Z,-0.40
2019-01-31T18:34:08.557Z,-0.50
2019-01-31T18:39:11.867Z,-0.60
2019-01-31T18:44:13.331Z,-0.70
2019-01-31T18:49:14.737Z,-0.80
2019-01-31T18:54:16.742Z,-0.80
2019-01-31T18:59:10.789Z,-0.80
2019-01-31T19:04:12.115Z,-0.90
2019-01-31T19:09:15.357Z,-0.90
2019-01-31T19:14:16.072Z,-1.00
2019-01-31T19:19:19.211Z,-1.10
2019-01-31T19:24:22.087Z,-1.20
2019-01-31T19:29:09.676Z,-1.30
2019-01-31T19:34:08.719Z,-1.40
2019-01-31T19:39:12.845Z,-1.40
2019-01-31T19:44:14.322Z,-1.40
2019-01-31T19:49:17.220Z,-1.40
2019-01-31T19:54:20.141Z,-1.40
2019-01-31T19:59:14.324Z,-1.40
2019-01-31T20:04:12.040Z,-1.20
2019-01-31T20:15:32.735Z,-1.20
2019-01-31T20:20:37.414Z,-1.20
2019-01-31T20:25:34.973Z,-1.20
2019-01-31T20:30:23.572Z,-1.20
2019-01-31T20:35:12.174Z,-1.20
2019-01-31T20:40:03.444Z,-1.30
2019-01-31T20:45:08.864Z,-1.30
2019-01-31T20:49:57.536Z,-1.30
2019-01-31T20:54:46.970Z,-1.30
2019-01-31T20:59:39.207Z,-1.40
2019-01-31T21:04:28.326Z,-1.40
2019-01-31T21:09:24.207Z,-1.40
2019-01-31T21:14:13.887Z,-1.50
2019-01-31T21:19:11.306Z,-1.50
2019-01-31T21:24:09.605Z,-1.50
2019-01-31T21:28:58.737Z,-1.60
2019-01-31T21:39:38.006Z,-1.70
2019-01-31T21:44:24.663Z,-1.70
2019-01-31T21:49:24.140Z,-1.80
2019-01-31T22:00:44.480Z,-1.80
2019-01-31T22:05:47.648Z,-1.70
2019-01-31T22:10:50.833Z,-1.60
2019-01-31T22:15:53.272Z,-1.50
2019-01-31T22:20:55.721Z,-1.40
2019-01-31T22:25:43.609Z,-1.30
2019-01-31T22:30:48.419Z,-1.20
2019-01-31T22:35:36.554Z,-1.20
2019-01-31T22:40:29.480Z,-1.10
2019-01-31T22:45:20.519Z,-1.10
2019-01-31T22:50:14.048Z,-1.10
2019-01-31T22:55:05.006Z,-1.00
2019-01-31T22:59:58.302Z,-1.00
2019-01-31T23:04:49.386Z,-1.00
2019-01-31T23:09:43.084Z,-1.00
2019-01-31T23:14:43.003Z,-1.00
2019-01-31T23:19:32.279Z,-0.90
2019-01-31T23:24:21.234Z,-0.90
2019-01-31T23:29:26.793Z,-0.90
2019-01-31T23:34:30.147Z,-0.90
2019-01-31T23:39:18.429Z,-0.80
2019-01-31T23:44:09.331Z,-0.80
2019-01-31T23:49:00.260Z,-0.70
2019-01-31T23:53:59.582Z,-0.70
2019-01-31T23:58:46.999Z,-0.60
